| time (UTC) | temp F | wind direction | speed knots | gust knots | rain 1hr in | rain 24hr in | rain mn in | humidity % | barometer mb |
| 20260507164246 | 48 | 293 | 3.5 | 7.0 | 0.00 | 0.08 | 0.08 | 98 | 1019.4 |
| 20260507163229 | 47 | 23 | 3.5 | 7.8 | 0.00 | 0.08 | 0.08 | 97 | 1019.6 |
| 20260507162721 | 47 | 315 | 3.5 | 11.3 | 0.00 | 0.08 | 0.08 | 97 | 1020.0 |
| 20260507161655 | 48 | 248 | 3.5 | 9.6 | 0.00 | 0.08 | 0.08 | 98 | 1019.7 |
| 20260507161145 | 48 | 315 | 4.3 | 7.8 | 0.01 | 0.08 | 0.08 | 98 | 1019.9 |
| 20260507160639 | 49 | 0 | 1.7 | 7.8 | 0.02 | 0.08 | 0.08 | 98 | 1019.6 |
| 20260507160125 | 49 | 270 | 2.6 | 7.0 | 0.04 | 0.08 | 0.08 | 98 | 1019.4 |
| 20260507154555 | 49 | 45 | 3.5 | 6.1 | 0.05 | 0.08 | 0.08 | 98 | 1019.6 |
| 20260507154047 | 50 | 315 | 0.9 | 6.1 | 0.05 | 0.08 | 0.08 | 98 | 1019.9 |
| 20260507153534 | 50 | 45 | 3.5 | 6.1 | 0.06 | 0.08 | 0.08 | 98 | 1019.7 |
| 20260507153024 | 50 | 293 | 1.7 | 5.2 | 0.06 | 0.08 | 0.08 | 98 | 1019.9 |
| 20260507152513 | 50 | 293 | 0.0 | 7.0 | 0.07 | 0.08 | 0.08 | 98 | 1020.0 |
| 20260507152004 | 49 | 23 | 1.7 | 7.0 | 0.07 | 0.08 | 0.08 | 97 | 1019.7 |
| 20260507150944 | 50 | 0 | 2.6 | 9.6 | 0.07 | 0.07 | 0.07 | 97 | 1019.6 |
| 20260507150433 | 50 | 0 | 0.9 | 13.0 | 0.06 | 0.06 | 0.06 | 98 | 1019.5 |
| 20260507145923 | 51 | 203 | 2.6 | 13.0 | 0.05 | 0.05 | 0.05 | 97 | 1018.8 |
| 20260507144906 | 51 | 68 | 3.5 | 18.2 | 0.04 | 0.04 | 0.04 | 97 | 1018.7 |
| 20260507144353 | 51 | 270 | 3.5 | 9.6 | 0.04 | 0.04 | 0.04 | 97 | 1018.9 |
| 20260507143843 | 51 | 293 | 3.5 | 9.6 | 0.02 | 0.02 | 0.02 | 97 | 1018.8 |
| 20260507142823 | 52 | 293 | 3.5 | 9.6 | 0.02 | 0.02 | 0.02 | 97 | 1018.7 |
| 20260507142316 | 52 | 270 | 3.5 | 9.6 | 0.01 | 0.01 | 0.01 | 96 | 1018.7 |
| 20260507141252 | 52 | 338 | 3.5 | 9.6 | 0.01 | 0.01 | 0.01 | 95 | 1018.7 |
| 20260507140742 | 52 | 23 | 1.7 | 7.0 | 0.00 | 0.00 | 0.00 | 95 | 1018.6 |
| 20260507140238 | 53 | 293 | 3.5 | 12.2 | 0.00 | 0.00 | 0.00 | 95 | 1018.6 |
| 20260507135724 | 53 | 315 | 3.5 | 12.2 | 0.00 | 0.00 | 0.00 | 95 | 1018.6 |
| 20260507135212 | 53 | 23 | 7.0 | 12.2 | 0.00 | 0.00 | 0.00 | 95 | 1018.3 |
| 20260507134701 | 53 | 338 | 2.6 | 9.6 | 0.00 | 0.00 | 0.00 | 95 | 1018.3 |
| 20260507134151 | 53 | 315 | 3.5 | 9.6 | 0.00 | 0.00 | 0.00 | 94 | 1018.3 |
| 20260507133641 | 54 | 23 | 1.7 | 9.6 | 0.00 | 0.00 | 0.00 | 94 | 1018.5 |
| 20260507133134 | 54 | 23 | 2.6 | 9.6 | 0.00 | 0.00 | 0.00 | 94 | 1018.2 |
| 20260507132621 | 54 | 45 | 2.6 | 17.4 | 0.00 | 0.00 | 0.00 | 93 | 1018.2 |
| 20260507132111 | 54 | 270 | 5.2 | 18.2 | 0.00 | 0.00 | 0.00 | 93 | 1018.0 |
| 20260507131051 | 54 | 315 | 4.3 | 13.9 | 0.00 | 0.00 | 0.00 | 95 | 1017.8 |
| 20260507130544 | 56 | 293 | 4.3 | 12.2 | 0.00 | 0.00 | 0.00 | 96 | 1017.2 |
| 20260507130030 | 56 | 315 | 1.7 | 7.8 | 0.00 | 0.00 | 0.00 | 96 | 1017.1 |
| 20260507125532 | 56 | 338 | 1.7 | 7.8 | 0.00 | 0.00 | 0.00 | 95 | 1017.4 |
| 20260507124518 | 60 | 158 | 3.5 | 13.9 | 0.00 | 0.00 | 0.00 | 90 | 1017.5 |
| 20260507123953 | 60 | 293 | 1.7 | 6.1 | 0.00 | 0.00 | 0.00 | 85 | 1016.7 |
| 20260507123439 | 60 | 293 | 0.9 | 6.1 | 0.00 | 0.00 | 0.00 | 85 | 1016.8 |
| 20260507122420 | 58 | 315 | 0.0 | 1.7 | 0.00 | 0.00 | 0.00 | 91 | 1016.6 |
| 20260507121402 | 58 | 338 | 0.0 | 1.7 | 0.00 | 0.00 | 0.00 | 89 | 1016.4 |
| 20260507120338 | 58 | 315 | 0.0 | 1.7 | 0.00 | 0.00 | 0.00 | 91 | 1015.9 |
| 20260507115828 | 57 | 293 | 0.0 | 1.7 | 0.00 | 0.00 | 0.00 | 91 | 1016.0 |
| 20260507115318 | 57 | 315 | 1.7 | 3.5 | 0.00 | 0.00 | 0.00 | 92 | 1015.9 |
| 20260507114258 | 56 | 315 | 1.7 | 3.5 | 0.00 | 0.00 | 0.00 | 94 | 1015.7 |
| 20260507113748 | 55 | 315 | 1.7 | 3.5 | 0.00 | 0.00 | 0.00 | 95 | 1016.3 |
| 20260507112728 | 55 | 315 | 1.7 | 3.5 | 0.00 | 0.00 | 0.00 | 96 | 1015.6 |
| 20260507112220 | 54 | 315 | 1.7 | 1.7 | 0.00 | 0.00 | 0.00 | 96 | 1015.7 |
| 20260507111708 | 53 | 315 | 0.9 | 1.7 | 0.00 | 0.00 | 0.00 | 97 | 1015.7 |
| 20260507111202 | 54 | 315 | 1.7 | 1.7 | 0.00 | 0.00 | 0.00 | 97 | 1015.4 |
| 20260507110647 | 53 | 315 | 1.7 | 1.7 | 0.00 | 0.00 | 0.00 | 97 | 1015.3 |
| 20260507110137 | 51 | 315 | 1.7 | 1.7 | 0.00 | 0.00 | 0.00 | 96 | 1015.0 |
| 20260507105629 | 51 | 68 | 0.9 | 1.7 | 0.00 | 0.00 | 0.00 | 96 | 1015.1 |
| 20260507105117 | 51 | 315 | 0.9 | 1.7 | 0.00 | 0.00 | 0.00 | 94 | 1014.6 |
| 20260507104607 | 52 | 270 | 0.0 | 3.5 | 0.00 | 0.00 | 0.00 | 94 | 1014.6 |
| 20260507104056 | 51 | 315 | 1.7 | 3.5 | 0.00 | 0.00 | 0.00 | 93 | 1014.4 |
| 20260507103546 | 47 | 315 | 0.9 | 3.5 | 0.00 | 0.00 | 0.00 | 92 | 1014.4 |
| 20260507103039 | 48 | 338 | 0.9 | 3.5 | 0.00 | 0.00 | 0.00 | 91 | 1014.4 |
| 20260507102526 | 47 | 315 | 1.7 | 3.5 | 0.00 | 0.00 | 0.00 | 90 | 1014.0 |
| 20260507102015 | 47 | 0 | 1.7 | 5.2 | 0.00 | 0.00 | 0.00 | 88 | 1014.2 |
| 20260507100448 | 47 | 45 | 0.0 | 3.5 | 0.00 | 0.00 | 0.00 | 84 | 1013.5 |
| 20260507095936 | 47 | 338 | 1.7 | 3.5 | 0.00 | 0.00 | 0.00 | 84 | 1012.6 |
| 20260507094915 | 47 | 338 | 0.9 | 5.2 | 0.00 | 0.00 | 0.00 | 82 | 1012.9 |
| 20260507094414 | 47 | 0 | 3.5 | 5.2 | 0.00 | 0.00 | 0.00 | 79 | 1012.6 |
| 20260507093858 | 47 | 135 | 1.7 | 5.2 | 0.00 | 0.00 | 0.00 | 79 | 1012.4 |
| 20260507093344 | 47 | 0 | 2.6 | 6.1 | 0.00 | 0.00 | 0.00 | 78 | 1012.2 |
| 20260507092834 | 47 | 293 | 1.7 | 6.1 | 0.00 | 0.00 | 0.00 | 78 | 1012.4 |
| 20260507091814 | 48 | 68 | 1.7 | 3.5 | 0.00 | 0.00 | 0.00 | 76 | 1012.1 |
| 20260507091306 | 47 | 90 | 2.6 | 3.5 | 0.00 | 0.00 | 0.00 | 73 | 1012.1 |
| 20260507090807 | 47 | 68 | 1.7 | 5.2 | 0.00 | 0.00 | 0.00 | 76 | 1011.9 |
| 20260507090248 | 47 | 338 | 1.7 | 6.1 | 0.00 | 0.00 | 0.00 | 75 | 1011.7 |
| 20260507085733 | 47 | 68 | 4.3 | 6.1 | 0.00 | 0.00 | 0.00 | 76 | 1011.9 |
| 20260507084716 | 47 | 270 | 1.7 | 6.1 | 0.00 | 0.00 | 0.00 | 74 | 1011.8 |
| 20260507084203 | 48 | 23 | 1.7 | 6.1 | 0.00 | 0.00 | 0.00 | 72 | 1011.7 |
| 20260507083652 | 46 | 23 | 2.6 | 5.2 | 0.00 | 0.00 | 0.00 | 81 | 1011.5 |
| 20260507081612 | 48 | 23 | 2.6 | 5.2 | 0.00 | 0.00 | 0.00 | 76 | 1011.3 |
| 20260507081103 | 48 | 225 | 0.9 | 6.1 | 0.00 | 0.00 | 0.00 | 77 | 1011.4 |
| 20260507080552 | 48 | 23 | 1.7 | 6.1 | 0.00 | 0.00 | 0.00 | 71 | 1012.1 |
| 20260507080054 | 47 | 68 | 3.5 | 5.2 | 0.00 | 0.00 | 0.00 | 74 | 1011.7 |
| 20260507075534 | 47 | 315 | 2.6 | 5.2 | 0.00 | 0.00 | 0.00 | 77 | 1012.2 |
| 20260507074001 | 47 | 68 | 1.7 | 6.1 | 0.00 | 0.00 | 0.00 | 76 | 1012.3 |
| 20260507073451 | 47 | 135 | 1.7 | 5.2 | 0.00 | 0.00 | 0.00 | 79 | 1012.1 |
| 20260507072431 | 47 | 293 | 1.7 | 5.2 | 0.00 | 0.00 | 0.00 | 80 | 1012.6 |
| 20260507071920 | 46 | 23 | 1.7 | 3.5 | 0.00 | 0.00 | 0.00 | 77 | 1012.6 |
| 20260507071410 | 46 | 23 | 2.6 | 5.2 | 0.00 | 0.00 | 0.00 | 80 | 1012.8 |
| 20260507070900 | 46 | 23 | 0.0 | 5.2 | 0.00 | 0.00 | 0.00 | 81 | 1012.9 |
| 20260507070353 | 46 | 338 | 1.7 | 3.5 | 0.00 | 0.00 | 0.00 | 80 | 1012.8 |
| 20260507065840 | 47 | 293 | 1.7 | 3.5 | 0.00 | 0.00 | 0.00 | 81 | 1013.0 |
| 20260507064820 | 49 | 338 | 0.0 | 5.2 | 0.00 | 0.00 | 0.00 | 77 | 1012.9 |
| 20260507064309 | 48 | 23 | 3.5 | 3.5 | 0.00 | 0.00 | 0.00 | 79 | 1012.9 |
| 20260507063803 | 48 | 23 | 1.7 | 5.2 | 0.00 | 0.00 | 0.00 | 74 | 1012.9 |
| 20260507063249 | 48 | 315 | 1.7 | 5.2 | 0.00 | 0.00 | 0.00 | 78 | 1013.0 |
| 20260507062739 | 47 | 23 | 2.6 | 5.2 | 0.00 | 0.00 | 0.00 | 81 | 1012.8 |
| 20260507062228 | 47 | 23 | 1.7 | 3.5 | 0.00 | 0.00 | 0.00 | 79 | 1013.1 |
| 20260507061719 | 47 | 45 | 1.7 | 5.2 | 0.00 | 0.00 | 0.00 | 79 | 1013.2 |
| 20260507061212 | 48 | 23 | 3.5 | 5.2 | 0.00 | 0.00 | 0.00 | 78 | 1012.9 |
| 20260507060149 | 47 | 90 | 1.7 | 5.2 | 0.00 | 0.00 | 0.00 | 78 | 1012.8 |
| 20260507055639 | 47 | 293 | 1.7 | 5.2 | 0.00 | 0.00 | 0.00 | 81 | 1013.2 |
| 20260507055128 | 48 | 0 | 1.7 | 6.1 | 0.00 | 0.00 | 0.00 | 80 | 1013.2 |
| 20260507054621 | 49 | 0 | 0.9 | 6.1 | 0.00 | 0.00 | 0.00 | 79 | 1012.8 |
| 20260507054108 | 49 | 23 | 3.5 | 5.2 | 0.00 | 0.00 | 0.00 | 77 | 1013.2 |
| 20260507053557 | 49 | 315 | 2.6 | 5.2 | 0.00 | 0.00 | 0.00 | 77 | 1013.5 |
| 20260507053054 | 49 | 270 | 1.7 | 5.2 | 0.00 | 0.00 | 0.00 | 81 | 1013.6 |
| 20260507052539 | 49 | 293 | 2.6 | 5.2 | 0.00 | 0.00 | 0.00 | 79 | 1013.3 |
| 20260507052033 | 50 | 45 | 1.7 | 0.0 | 0.00 | 0.00 | 0.00 | 74 | 1013.6 |
| 20260507051741 | 51 | 315 | 0.9 | 0.0 | 0.00 | 0.00 | 0.00 | 71 | 1013.6 |
| 20260507051140 | 49 | 293 | 2.6 | 6.1 | 0.00 | 0.00 | 0.00 | 73 | 1013.9 |
| 20260507050630 | 49 | 90 | 0.9 | 3.5 | 0.00 | 0.00 | 0.00 | 77 | 1013.7 |
| 20260507045609 | 49 | 270 | 0.0 | 3.5 | 0.00 | 0.00 | 0.00 | 78 | 1014.2 |
| 20260507045103 | 49 | 0 | 1.7 | 3.5 | 0.00 | 0.00 | 0.00 | 77 | 1013.9 |
| 20260507044550 | 49 | 293 | 1.7 | 3.5 | 0.00 | 0.00 | 0.00 | 75 | 1013.8 |
| 20260507044039 | 49 | 270 | 1.7 | 3.5 | 0.00 | 0.00 | 0.00 | 80 | 1014.3 |
| 20260507043529 | 48 | 270 | 0.0 | 3.5 | 0.00 | 0.00 | 0.00 | 77 | 1014.5 |
| 20260507043020 | 49 | 293 | 1.7 | 3.5 | 0.00 | 0.00 | 0.00 | 82 | 1014.4 |
| 20260507042525 | 50 | 113 | 1.7 | 3.5 | 0.00 | 0.00 | 0.00 | 78 | 1014.5 |
| 20260507041449 | 50 | 338 | 0.0 | 5.2 | 0.00 | 0.00 | 0.00 | 79 | 1014.5 |
| 20260507040938 | 50 | 45 | 2.6 | 7.0 | 0.00 | 0.00 | 0.00 | 73 | 1014.6 |
| 20260507035922 | 50 | 23 | 3.5 | 3.5 | 0.00 | 0.00 | 0.00 | 78 | 1014.6 |
| 20260507034858 | 49 | 338 | 1.7 | 6.1 | 0.00 | 0.00 | 0.00 | 77 | 1014.5 |
| 20260507034348 | 49 | 338 | 1.7 | 6.1 | 0.00 | 0.00 | 0.00 | 80 | 1014.5 |
| 20260507033337 | 47 | 45 | 1.7 | 5.2 | 0.00 | 0.00 | 0.00 | 84 | 1014.4 |
| 20260507032830 | 47 | 45 | 0.0 | 1.7 | 0.00 | 0.00 | 0.00 | 85 | 1014.5 |
| 20260507032308 | 48 | 0 | 1.7 | 3.5 | 0.00 | 0.00 | 0.00 | 81 | 1014.7 |
| 20260507031757 | 49 | 68 | 0.0 | 6.1 | 0.00 | 0.00 | 0.00 | 81 | 1014.6 |
| 20260507031247 | 49 | 0 | 1.7 | 6.1 | 0.00 | 0.00 | 0.00 | 80 | 1014.7 |
| 20260507030740 | 48 | 158 | 0.0 | 3.5 | 0.00 | 0.00 | 0.00 | 81 | 1014.5 |
| 20260507030226 | 50 | 135 | 0.9 | 3.5 | 0.00 | 0.00 | 0.00 | 79 | 1014.9 |
| 20260507025717 | 49 | 23 | 1.7 | 5.2 | 0.00 | 0.00 | 0.00 | 78 | 1015.0 |
| 20260507025206 | 50 | 315 | 0.9 | 5.2 | 0.00 | 0.00 | 0.00 | 78 | 1014.9 |
| 20260507024656 | 50 | 23 | 0.9 | 3.5 | 0.00 | 0.00 | 0.00 | 77 | 1015.1 |
| 20260507023649 | 49 | 23 | 3.5 | 5.2 | 0.00 | 0.00 | 0.00 | 77 | 1015.3 |
| 20260507023126 | 50 | 338 | 2.6 | 5.2 | 0.00 | 0.00 | 0.00 | 77 | 1015.4 |
| 20260507022615 | 50 | 0 | 3.5 | 5.2 | 0.00 | 0.00 | 0.00 | 76 | 1015.7 |
| 20260507022106 | 49 | 23 | 1.7 | 3.5 | 0.00 | 0.00 | 0.00 | 82 | 1015.8 |
| 20260507021045 | 49 | 315 | 1.7 | 5.2 | 0.00 | 0.00 | 0.00 | 83 | 1015.9 |
| 20260507020536 | 49 | 315 | 1.7 | 3.5 | 0.00 | 0.00 | 0.00 | 83 | 1016.0 |
| 20260507020027 | 49 | 68 | 0.0 | 3.5 | 0.00 | 0.00 | 0.00 | 82 | 1015.9 |
| 20260507015515 | 50 | 315 | 1.7 | 1.7 | 0.00 | 0.00 | 0.00 | 78 | 1015.9 |
| 20260507015008 | 51 | 113 | 0.9 | 3.5 | 0.00 | 0.00 | 0.00 | 79 | 1016.1 |
| 20260507014454 | 52 | 135 | 1.7 | 3.5 | 0.00 | 0.00 | 0.00 | 72 | 1015.9 |
| 20260507013945 | 51 | 338 | 1.7 | 6.1 | 0.00 | 0.00 | 0.00 | 80 | 1015.8 |
| 20260507013437 | 52 | 0 | 1.7 | 6.1 | 0.00 | 0.00 | 0.00 | 78 | 1016.1 |
| 20260507012925 | 51 | 45 | 3.5 | 3.5 | 0.00 | 0.00 | 0.00 | 75 | 1016.3 |
| 20260507012414 | 50 | 315 | 1.7 | 3.5 | 0.00 | 0.00 | 0.00 | 85 | 1016.3 |
| 20260507011904 | 50 | 0 | 1.7 | 3.5 | 0.00 | 0.00 | 0.00 | 83 | 1016.5 |
| 20260507011353 | 49 | 338 | 2.6 | 3.5 | 0.00 | 0.00 | 0.00 | 84 | 1016.3 |
| 20260507010854 | 49 | 338 | 0.0 | 3.5 | 0.00 | 0.00 | 0.00 | 84 | 1016.5 |
| 20260507010334 | 50 | 315 | 0.9 | 3.5 | 0.00 | 0.00 | 0.00 | 84 | 1016.3 |
| 20260507005823 | 50 | 338 | 1.7 | 3.5 | 0.00 | 0.00 | 0.00 | 84 | 1016.3 |
| 20260507004256 | 52 | 68 | 0.9 | 3.5 | 0.00 | 0.00 | 0.00 | 79 | 1016.3 |
| 20260507003233 | 53 | 45 | 2.6 | 5.2 | 0.00 | 0.00 | 0.00 | 76 | 1015.8 |
| 20260507002723 | 53 | 23 | 3.5 | 5.2 | 0.00 | 0.00 | 0.00 | 74 | 1016.0 |
| 20260507002212 | 51 | 23 | 2.6 | 6.1 | 0.00 | 0.00 | 0.00 | 79 | 1016.0 |
| 20260507001706 | 52 | 23 | 2.6 | 6.1 | 0.00 | 0.00 | 0.00 | 80 | 1015.8 |
| 20260507001153 | 52 | 45 | 1.7 | 5.2 | 0.00 | 0.00 | 0.00 | 80 | 1016.0 |
| 20260507000654 | 52 | 23 | 3.5 | 5.2 | 0.00 | 0.00 | 0.00 | 78 | 1016.0 |
| 20260507000131 | 51 | 0 | 1.7 | 3.5 | 0.00 | 0.00 | 0.00 | 82 | 1016.1 |
| 20260506235623 | 52 | 23 | 1.7 | 6.1 | 0.00 | 0.00 | 0.00 | 82 | 1015.9 |
| 20260506234605 | 53 | 0 | 1.7 | 3.5 | 0.00 | 0.00 | 0.00 | 78 | 1015.9 |
| 20260506234051 | 52 | 23 | 1.7 | 3.5 | 0.00 | 0.00 | 0.00 | 82 | 1015.9 |
| 20260506233544 | 52 | 0 | 1.7 | 3.5 | 0.00 | 0.00 | 0.00 | 82 | 1015.9 |
| 20260506233032 | 53 | 23 | 1.7 | 3.5 | 0.00 | 0.00 | 0.00 | 81 | 1015.8 |
| 20260506232524 | 54 | 315 | 0.0 | 3.5 | 0.00 | 0.00 | 0.00 | 81 | 1015.8 |
| 20260506232012 | 53 | 45 | 1.7 | 3.5 | 0.00 | 0.00 | 0.00 | 78 | 1015.4 |
| 20260506231501 | 54 | 45 | 1.7 | 3.5 | 0.00 | 0.00 | 0.00 | 80 | 1015.4 |
| 20260506230952 | 54 | 23 | 0.9 | 3.5 | 0.00 | 0.00 | 0.00 | 78 | 1015.4 |
| 20260506230441 | 54 | 23 | 1.7 | 3.5 | 0.00 | 0.00 | 0.00 | 81 | 1015.3 |
| 20260506225934 | 55 | 45 | 2.6 | 5.2 | 0.00 | 0.00 | 0.00 | 77 | 1015.6 |
| 20260506225420 | 55 | 315 | 3.5 | 5.2 | 0.00 | 0.00 | 0.00 | 76 | 1015.1 |
| 20260506224911 | 55 | 0 | 1.7 | 6.1 | 0.00 | 0.00 | 0.00 | 82 | 1015.2 |
| 20260506224400 | 56 | 315 | 1.7 | 6.1 | 0.00 | 0.00 | 0.00 | 79 | 1015.3 |
| 20260506223850 | 56 | 23 | 1.7 | 3.5 | 0.00 | 0.00 | 0.00 | 80 | 1015.4 |
| 20260506223343 | 56 | 23 | 1.7 | 3.5 | 0.00 | 0.00 | 0.00 | 81 | 1015.2 |
| 20260506222318 | 57 | 293 | 0.9 | 3.5 | 0.00 | 0.00 | 0.00 | 80 | 1014.7 |
| 20260506221808 | 57 | 68 | 1.7 | 3.5 | 0.00 | 0.00 | 0.00 | 77 | 1014.7 |
| 20260506221300 | 58 | 0 | 1.7 | 3.5 | 0.00 | 0.00 | 0.00 | 79 | 1014.9 |
| 20260506220238 | 59 | 315 | 1.7 | 3.5 | 0.00 | 0.00 | 0.00 | 77 | 1014.5 |
| 20260506215728 | 59 | 0 | 1.7 | 3.5 | 0.00 | 0.00 | 0.00 | 81 | 1014.6 |
| 20260506215218 | 59 | 315 | 0.9 | 3.5 | 0.00 | 0.00 | 0.00 | 83 | 1014.6 |
| 20260506214708 | 59 | 338 | 0.9 | 3.5 | 0.00 | 0.00 | 0.00 | 85 | 1014.7 |
| 20260506214214 | 59 | 315 | 1.7 | 3.5 | 0.00 | 0.00 | 0.00 | 86 | 1014.9 |
| 20260506213648 | 59 | 293 | 0.0 | 3.5 | 0.00 | 0.00 | 0.00 | 87 | 1014.4 |
| 20260506213137 | 60 | 293 | 0.0 | 3.5 | 0.00 | 0.00 | 0.00 | 86 | 1014.5 |
| 20260506212628 | 61 | 45 | 1.7 | 1.7 | 0.00 | 0.00 | 0.00 | 84 | 1014.4 |
| 20260506212117 | 61 | 293 | 1.7 | 1.7 | 0.00 | 0.00 | 0.00 | 86 | 1014.5 |
| 20260506211611 | 62 | 293 | 0.9 | 1.7 | 0.00 | 0.00 | 0.00 | 84 | 1014.0 |
| 20260506211058 | 63 | 293 | 0.0 | 1.7 | 0.00 | 0.00 | 0.00 | 84 | 1014.4 |
| 20260506210547 | 63 | 338 | 1.7 | 1.7 | 0.00 | 0.00 | 0.00 | 83 | 1014.2 |
| 20260506210037 | 63 | 293 | 0.9 | 1.7 | 0.00 | 0.00 | 0.00 | 83 | 1014.0 |
| 20260506205527 | 63 | 293 | 0.0 | 1.7 | 0.00 | 0.00 | 0.00 | 82 | 1014.0 |
| 20260506205020 | 64 | 293 | 0.9 | 1.7 | 0.00 | 0.00 | 0.00 | 81 | 1013.7 |
| 20260506203447 | 65 | 293 | 1.7 | 1.7 | 0.00 | 0.00 | 0.00 | 80 | 1014.0 |
| 20260506202936 | 67 | 293 | 0.9 | 1.7 | 0.00 | 0.00 | 0.00 | 78 | 1013.9 |
| 20260506202429 | 67 | 270 | 0.0 | 1.7 | 0.00 | 0.00 | 0.00 | 76 | 1013.6 |
| 20260506201915 | 68 | 293 | 0.9 | 1.7 | 0.00 | 0.00 | 0.00 | 73 | 1013.8 |
| 20260506201405 | 69 | 315 | 0.9 | 1.7 | 0.00 | 0.00 | 0.00 | 72 | 1013.8 |
| 20260506200900 | 70 | 293 | 0.9 | 3.5 | 0.00 | 0.00 | 0.00 | 65 | 1013.7 |
| 20260506200345 | 72 | 293 | 1.7 | 3.5 | 0.00 | 0.00 | 0.00 | 65 | 1013.8 |
| 20260506195837 | 71 | 315 | 1.7 | 3.5 | 0.00 | 0.00 | 0.00 | 67 | 1014.0 |
| 20260506195325 | 72 | 315 | 1.7 | 3.5 | 0.00 | 0.00 | 0.00 | 66 | 1014.2 |
| 20260506194815 | 71 | 293 | 0.9 | 1.7 | 0.00 | 0.00 | 0.00 | 68 | 1013.9 |
| 20260506194319 | 73 | 315 | 0.9 | 1.7 | 0.00 | 0.00 | 0.00 | 67 | 1013.8 |
| 20260506193754 | 74 | 293 | 0.0 | 1.7 | 0.00 | 0.00 | 0.00 | 64 | 1014.0 |
| 20260506193301 | 75 | 293 | 0.0 | 1.7 | 0.00 | 0.00 | 0.00 | 61 | 1014.0 |
| 20260506192736 | 74 | 270 | 0.0 | 1.7 | 0.00 | 0.00 | 0.00 | 62 | 1014.0 |
| 20260506192224 | 73 | 270 | 0.0 | 3.5 | 0.00 | 0.00 | 0.00 | 63 | 1013.9 |
| 20260506191715 | 72 | 293 | 1.7 | 3.5 | 0.00 | 0.00 | 0.00 | 63 | 1013.9 |
| 20260506191204 | 75 | 293 | 1.7 | 3.5 | 0.00 | 0.00 | 0.00 | 60 | 1013.7 |
| 20260506185633 | 81 | 270 | 0.9 | 1.7 | 0.00 | 0.00 | 0.00 | 51 | 1013.9 |
| 20260506185124 | 82 | 293 | 0.9 | 6.1 | 0.00 | 0.00 | 0.00 | 44 | 1013.7 |
| 20260506184613 | 81 | 270 | 0.0 | 6.1 | 0.00 | 0.00 | 0.00 | 49 | 1013.7 |
| 20260506184119 | 80 | 90 | 2.6 | 7.0 | 0.00 | 0.00 | 0.00 | 48 | 1013.9 |
| 20260506183552 | 80 | 180 | 1.7 | 7.0 | 0.00 | 0.00 | 0.00 | 48 | 1014.0 |
| 20260506183055 | 85 | 248 | 0.9 | 1.7 | 0.00 | 0.00 | 0.00 | 46 | 1013.9 |
| 20260506182552 | 84 | 293 | 0.0 | 1.7 | 0.00 | 0.00 | 0.00 | 44 | 1013.8 |
| 20260506182022 | 83 | 293 | 0.0 | 1.7 | 0.00 | 0.00 | 0.00 | 43 | 1013.9 |
| 20260506181016 | 79 | 248 | 1.7 | 9.6 | 0.00 | 0.00 | 0.00 | 53 | 1014.0 |
| 20260506180456 | 82 | 225 | 3.5 | 9.6 | 0.00 | 0.00 | 0.00 | 47 | 1013.8 |
| 20260506175944 | 84 | 248 | 0.0 | 6.1 | 0.00 | 0.00 | 0.00 | 41 | 1014.5 |
| 20260506175431 | 80 | 135 | 1.7 | 7.8 | 0.00 | 0.00 | 0.00 | 42 | 1014.3 |
| 20260506174938 | 82 | 203 | 3.5 | 7.8 | 0.00 | 0.00 | 0.00 | 39 | 1014.0 |
| 20260506174412 | 82 | 225 | 1.7 | 7.0 | 0.00 | 0.00 | 0.00 | 38 | 1014.2 |
| 20260506173904 | 83 | 158 | 1.7 | 7.0 | 0.00 | 0.00 | 0.00 | 36 | 1014.2 |
| 20260506172842 | 85 | 225 | 1.7 | 7.8 | 0.00 | 0.00 | 0.00 | 36 | 1014.3 |
| 20260506172334 | 88 | 293 | 0.9 | 5.2 | 0.00 | 0.00 | 0.00 | 18 | 1014.3 |
| 20260506171823 | 88 | 270 | 0.0 | 7.8 | 0.00 | 0.00 | 0.00 | 29 | 1014.2 |
| 20260506170800 | 89 | 293 | 0.0 | 1.7 | 0.00 | 0.00 | 0.00 | 33 | 1014.3 |
| 20260506170250 | 87 | 45 | 0.9 | 1.7 | 0.00 | 0.00 | 0.00 | 29 | 1014.5 |
| 20260506165744 | 87 | 293 | 0.0 | 3.5 | 0.00 | 0.00 | 0.00 | 28 | 1014.6 |
| 20260506165239 | 85 | 248 | 0.0 | 3.5 | 0.00 | 0.00 | 0.00 | 27 | 1014.7 |
| 20260506164720 | 83 | 90 | 1.7 | 6.1 | 0.00 | 0.00 | 0.00 | 30 | 1014.7 |